Rule, Texas
Current Conditions -  °F | °C
As of 3:15 AM on Saturday 22 Nov 2014 (Local Time) from KDYS Reporting Station
Drizzle Drizzle  
Wind Chill: 63°   Ceiling: 900
Heat Index: 63°   Visibility: 10mi
Dew Point: 59°   Wind: 7mph
Humidity: 88%   Direction: 160°SSE
Pressure: 29.97"   Gusts: NA
Location:  33.18°N, 99.89°W
Report Text: KDYS 220915Z AUTO 16006KT 10SM -DZ BKN009 OVC016 17/15 A2997 RMK AO2
Loading
Personal Weather Stations






























Interactive Weather Map New forecast layout! Learn more

10-Day Weather Forecast

Advertisements
Track Severe Weather on mobile